createdAt,value
2022-12-23T00:04:01.557Z,17.73
2022-12-23T00:06:29.534Z,20.98
2022-12-23T00:21:37.915Z,16.83
2022-12-23T00:24:06.045Z,15.98
2022-12-23T00:26:33.801Z,16.10
2022-12-23T00:30:09.191Z,13.05
2022-12-23T00:53:29.430Z,11.13
2022-12-23T01:12:35.737Z,10.38
2022-12-23T01:15:18.419Z,9.45
2022-12-23T01:28:40.688Z,8.75
2022-12-23T02:13:08.464Z,9.55
2022-12-23T02:37:46.591Z,10.43
2022-12-23T03:27:21.773Z,13.80
2022-12-23T03:30:59.184Z,9.15
2022-12-23T03:59:32.505Z,11.45
2022-12-23T06:55:11.405Z,46.15
2022-12-23T06:57:38.775Z,66.25
2022-12-23T07:00:08.524Z,61.90
2022-12-23T07:02:36.109Z,49.67
2022-12-23T07:05:03.599Z,31.98
2022-12-23T07:07:32.831Z,35.40
2022-12-23T07:09:59.926Z,32.95
2022-12-23T07:12:27.372Z,31.50
2022-12-23T07:36:40.033Z,19.35
2022-12-23T07:39:07.595Z,37.13
2022-12-23T07:41:35.012Z,18.30
2022-12-23T07:44:08.796Z,31.70
2022-12-23T07:46:36.046Z,20.08
2022-12-23T07:49:03.515Z,30.30
2022-12-23T07:51:31.746Z,17.50
2022-12-23T07:53:59.271Z,16.95
2022-12-23T07:56:26.478Z,13.35
2022-12-23T07:58:54.461Z,14.05
2022-12-23T08:01:23.087Z,14.82
2022-12-23T08:03:50.519Z,11.77
2022-12-23T08:06:17.838Z,12.73
2022-12-23T08:08:46.637Z,11.55
2022-12-23T08:11:15.782Z,14.35
2022-12-23T08:13:45.711Z,12.10
2022-12-23T08:16:12.999Z,15.48
2022-12-23T08:18:42.074Z,14.70
2022-12-23T09:19:09.697Z,15.70
2022-12-23T09:21:55.643Z,16.75
2022-12-23T09:24:23.053Z,18.38
2022-12-23T09:26:50.719Z,17.63
2022-12-23T09:29:18.034Z,18.02
2022-12-23T09:31:45.515Z,21.08
2022-12-23T09:34:12.983Z,21.17
2022-12-23T09:36:40.463Z,20.75
2022-12-23T09:39:07.847Z,25.95
2022-12-23T09:41:50.967Z,22.27
2022-12-23T09:44:57.298Z,32.05
2022-12-23T09:47:29.626Z,49.85
2022-12-23T09:50:03.009Z,29.25
2022-12-23T09:53:00.730Z,78.35
2022-12-23T10:00:34.332Z,27.73
2022-12-23T10:04:04.426Z,46.42
2022-12-23T10:06:34.609Z,26.58
2022-12-23T10:09:05.465Z,25.67
2022-12-23T10:11:41.029Z,25.33
2022-12-23T10:14:29.332Z,27.13
2022-12-23T10:17:04.985Z,25.02
2022-12-23T10:19:42.126Z,23.33
2022-12-23T10:22:40.245Z,14.55
2022-12-23T10:25:22.806Z,19.58
2022-12-23T10:27:50.315Z,18.80
2022-12-23T10:33:16.776Z,15.48
2022-12-23T10:36:15.502Z,10.27
2022-12-23T10:39:31.615Z,10.95
2022-12-23T11:14:32.941Z,7.45
2022-12-23T11:17:49.746Z,6.63
2022-12-23T11:20:20.210Z,5.93
2022-12-23T11:27:27.599Z,6.50
2022-12-23T11:29:55.247Z,6.20
2022-12-23T11:32:28.838Z,6.93
2022-12-23T11:36:47.778Z,7.00
2022-12-23T11:39:25.227Z,6.35
2022-12-23T11:42:19.539Z,6.70
2022-12-23T11:44:52.426Z,7.55
2022-12-23T11:54:23.450Z,8.32
2022-12-23T11:56:53.682Z,7.45
2022-12-23T11:59:37.077Z,9.13
2022-12-23T12:02:20.640Z,7.80
2022-12-23T12:09:06.894Z,9.98
2022-12-23T12:12:21.960Z,8.93
2022-12-23T12:14:56.595Z,8.07
2022-12-23T12:17:49.271Z,7.95
2022-12-23T12:20:29.022Z,8.48
2022-12-23T12:23:04.785Z,7.05
2022-12-23T12:25:52.761Z,7.90
2022-12-23T12:28:26.015Z,9.48
2022-12-23T12:31:03.640Z,9.18
2022-12-23T12:34:01.874Z,11.43
2022-12-23T12:36:48.985Z,9.05
2022-12-23T12:39:28.166Z,8.57
2022-12-23T12:42:11.716Z,8.07
2022-12-23T12:45:09.944Z,8.45
2022-12-23T12:47:57.851Z,7.95
2022-12-23T12:50:36.348Z,8.18
2022-12-23T12:53:17.780Z,7.90
2022-12-23T12:55:53.001Z,7.45
2022-12-23T12:58:23.826Z,8.45
2022-12-23T13:01:09.534Z,7.22
2022-12-23T13:04:22.361Z,7.13
2022-12-23T13:07:15.758Z,6.93
2022-12-23T13:10:39.751Z,7.30
2022-12-23T13:14:07.534Z,7.38
2022-12-23T13:17:00.396Z,10.00
2022-12-23T13:19:58.048Z,7.30
2022-12-23T13:22:34.128Z,7.03
2022-12-23T13:25:20.473Z,6.93
2022-12-23T13:28:17.382Z,7.35
2022-12-23T13:31:06.436Z,9.20
2022-12-23T13:34:02.229Z,8.30
2022-12-23T13:37:20.210Z,8.65
2022-12-23T13:40:29.164Z,7.95
2022-12-23T13:43:21.563Z,7.72
2022-12-23T13:45:53.320Z,8.53
2022-12-23T13:48:55.811Z,8.55
2022-12-23T13:52:23.254Z,7.35
2022-12-23T13:55:08.740Z,7.55
2022-12-23T13:58:03.878Z,9.20
2022-12-23T14:00:34.404Z,7.22
2022-12-23T14:03:01.661Z,9.50
2022-12-23T14:06:29.071Z,7.88
2022-12-23T14:08:56.369Z,7.88
2022-12-23T14:11:34.376Z,8.25
2022-12-23T14:14:17.579Z,9.50
2022-12-23T14:57:17.279Z,16.67
2022-12-23T15:00:05.800Z,18.83
2022-12-23T15:02:41.222Z,23.00
2022-12-23T15:05:10.246Z,23.48
2022-12-23T15:07:42.138Z,26.00
2022-12-23T15:10:18.639Z,27.42
2022-12-23T15:12:57.730Z,24.60
2022-12-23T15:15:30.657Z,22.95
2022-12-23T15:18:15.862Z,23.20
2022-12-23T15:20:43.288Z,24.50
2022-12-23T15:23:16.056Z,26.67
2022-12-23T15:25:48.759Z,24.52
2022-12-23T15:28:21.615Z,24.63
2022-12-23T15:30:54.831Z,25.10
2022-12-23T15:36:20.281Z,22.65
2022-12-23T15:38:47.773Z,22.45
2022-12-23T15:41:18.526Z,20.23
2022-12-23T15:43:45.878Z,20.02
2022-12-23T15:46:29.015Z,22.65
2022-12-23T15:48:57.927Z,21.13
2022-12-23T15:52:06.555Z,18.95
2022-12-23T15:54:30.051Z,17.35
2022-12-23T15:57:01.725Z,17.02
2022-12-23T15:59:37.949Z,21.98
2022-12-23T16:02:59.025Z,23.45
2022-12-23T16:05:13.339Z,28.65
2022-12-23T16:07:42.429Z,25.92
2022-12-23T16:13:44.903Z,28.90
2022-12-23T16:16:32.785Z,29.77
2022-12-23T16:19:00.585Z,28.20
2022-12-23T17:44:33.033Z,38.53
2022-12-23T19:36:38.738Z,49.58
2022-12-23T19:39:06.387Z,52.92
2022-12-23T19:41:33.435Z,55.58
2022-12-23T19:49:19.208Z,56.22
2022-12-23T19:51:47.350Z,56.42
2022-12-23T19:54:15.079Z,56.30
2022-12-23T19:56:42.416Z,51.65
2022-12-23T19:59:09.856Z,50.88
2022-12-23T20:01:37.038Z,55.45
2022-12-23T20:04:04.619Z,53.80
2022-12-23T20:06:34.739Z,49.00
2022-12-23T20:09:06.314Z,46.03
2022-12-23T20:11:37.539Z,50.55
2022-12-23T20:14:06.811Z,57.70
2022-12-23T20:16:35.558Z,55.70
2022-12-23T20:19:05.282Z,48.80
2022-12-23T20:21:34.100Z,49.00
2022-12-23T20:24:01.806Z,46.20
2022-12-23T20:26:29.211Z,45.00
2022-12-23T20:28:57.547Z,46.88
2022-12-23T20:31:28.855Z,40.65
2022-12-23T20:33:57.954Z,46.92
2022-12-23T20:36:29.840Z,44.88
2022-12-23T20:38:57.979Z,51.03
2022-12-23T20:41:28.506Z,44.42
2022-12-23T20:44:32.486Z,44.92
2022-12-23T20:46:43.965Z,46.08
2022-12-23T20:49:11.299Z,40.55
2022-12-23T20:51:38.350Z,51.03
2022-12-23T20:54:05.764Z,104.80
2022-12-23T20:56:32.863Z,53.55
2022-12-23T20:59:02.463Z,54.13
2022-12-23T21:01:35.744Z,47.97
2022-12-23T21:04:07.443Z,44.60
2022-12-23T21:06:36.117Z,45.55
2022-12-23T21:09:07.937Z,97.18
2022-12-23T21:11:39.145Z,79.75
2022-12-23T21:14:07.813Z,115.10
2022-12-23T21:16:38.328Z,148.18
2022-12-23T21:19:25.625Z,155.57
2022-12-23T21:21:53.724Z,163.07
2022-12-23T21:24:21.465Z,163.63
2022-12-23T21:26:56.529Z,194.20
2022-12-23T21:29:26.113Z,238.48
2022-12-23T21:31:53.526Z,301.15
2022-12-23T21:34:21.012Z,254.18
2022-12-23T21:36:48.172Z,232.55
2022-12-23T21:39:16.876Z,245.13
2022-12-23T21:41:44.246Z,171.88
2022-12-23T21:44:15.650Z,241.25
2022-12-23T21:46:42.937Z,117.65
2022-12-23T21:49:10.957Z,98.07
2022-12-23T21:51:40.837Z,173.20
2022-12-23T21:54:11.434Z,143.02
2022-12-23T21:56:40.650Z,112.38
2022-12-23T21:59:14.836Z,92.93
2022-12-23T22:01:42.907Z,88.80
2022-12-23T22:04:10.623Z,110.18
2022-12-23T22:06:43.634Z,93.43
2022-12-23T22:09:16.076Z,81.13
2022-12-23T22:11:43.946Z,80.75
2022-12-23T22:14:16.636Z,67.55
2022-12-23T22:16:44.076Z,86.68
2022-12-23T22:19:12.475Z,102.03
2022-12-23T22:21:39.773Z,78.72
2022-12-23T22:24:07.635Z,120.88
2022-12-23T22:26:35.928Z,65.68
2022-12-23T22:29:06.407Z,66.65
2022-12-23T22:31:42.441Z,68.80
2022-12-23T22:34:19.210Z,72.72
2022-12-23T22:36:49.462Z,145.63
2022-12-23T22:39:21.983Z,116.55
2022-12-23T22:41:52.929Z,61.63
2022-12-23T22:44:22.256Z,125.40
2022-12-23T22:46:51.328Z,134.23
2022-12-23T22:49:46.037Z,76.40
2022-12-23T22:52:14.272Z,68.43
2022-12-23T22:54:41.939Z,124.03
2022-12-23T22:57:11.376Z,97.75
2022-12-23T22:59:38.982Z,83.60
2022-12-23T23:02:06.262Z,127.65
2022-12-23T23:04:33.946Z,142.40
2022-12-23T23:07:01.380Z,67.20
2022-12-23T23:09:28.934Z,128.43
2022-12-23T23:11:56.185Z,86.22
2022-12-23T23:14:23.543Z,136.13
2022-12-23T23:16:51.148Z,142.00
2022-12-23T23:19:20.556Z,75.75
2022-12-23T23:21:48.790Z,134.90
2022-12-23T23:24:16.163Z,118.93
2022-12-23T23:26:43.291Z,74.63
2022-12-23T23:29:10.591Z,64.43
2022-12-23T23:31:42.929Z,124.93
2022-12-23T23:34:12.709Z,128.48
2022-12-23T23:36:40.505Z,75.18
2022-12-23T23:39:11.059Z,59.67
2022-12-23T23:41:38.446Z,56.13
2022-12-23T23:44:05.734Z,55.22
2022-12-23T23:46:34.372Z,52.55
2022-12-23T23:49:02.072Z,52.72
2022-12-23T23:51:29.458Z,50.08
2022-12-23T23:53:56.811Z,47.40
2022-12-23T23:56:26.186Z,49.95
2022-12-23T23:58:54.651Z,48.28
